createdAt,value
2018-08-06T00:00:37.622Z,21.90
2018-08-06T00:05:39.825Z,21.90
2018-08-06T00:10:42.028Z,21.80
2018-08-06T00:15:44.303Z,21.60
2018-08-06T00:20:46.493Z,21.50
2018-08-06T00:25:48.677Z,21.30
2018-08-06T00:30:50.861Z,21.10
2018-08-06T00:35:53.045Z,21.00
2018-08-06T00:40:55.230Z,21.00
2018-08-06T00:45:57.413Z,21.00
2018-08-06T00:50:59.597Z,20.80
2018-08-06T00:56:01.789Z,20.90
2018-08-06T01:01:03.998Z,20.90
2018-08-06T01:06:06.363Z,20.50
2018-08-06T01:11:08.553Z,20.50
2018-08-06T01:16:10.709Z,20.50
2018-08-06T01:21:12.969Z,20.30
2018-08-06T01:26:15.130Z,20.30
2018-08-06T01:31:17.305Z,20.30
2018-08-06T01:36:19.509Z,20.30
2018-08-06T01:41:21.677Z,20.30
2018-08-06T01:46:23.845Z,20.30
2018-08-06T01:51:25.989Z,20.60
2018-08-06T01:56:28.455Z,20.70
2018-08-06T02:01:30.605Z,20.90
2018-08-06T02:06:32.785Z,20.80
2018-08-06T02:11:35.301Z,20.80
2018-08-06T02:16:37.484Z,20.80
2018-08-06T02:21:39.664Z,20.80
2018-08-06T02:26:41.850Z,20.80
2018-08-06T02:31:44.052Z,20.80
2018-08-06T02:36:46.273Z,20.80
2018-08-06T02:41:48.429Z,20.80
2018-08-06T02:46:50.637Z,20.80
2018-08-06T02:51:52.845Z,20.90
2018-08-06T02:56:55.073Z,20.80
2018-08-06T03:01:57.252Z,20.90
2018-08-06T03:06:59.448Z,20.80
2018-08-06T03:12:01.654Z,20.80
2018-08-06T03:17:03.993Z,20.70
2018-08-06T03:22:06.277Z,20.70
2018-08-06T03:27:08.463Z,20.70
2018-08-06T03:32:10.692Z,20.60
2018-08-06T03:37:12.934Z,20.60
2018-08-06T03:42:15.119Z,20.60
2018-08-06T03:47:17.265Z,20.50
2018-08-06T03:52:19.421Z,20.50
2018-08-06T03:57:21.621Z,20.30
2018-08-06T04:02:23.829Z,20.00
2018-08-06T04:07:25.969Z,20.00
2018-08-06T04:12:28.125Z,19.90
2018-08-06T04:17:30.277Z,19.90
2018-08-06T04:22:32.443Z,19.80
2018-08-06T04:27:34.958Z,19.80
2018-08-06T04:32:37.176Z,20.10
2018-08-06T04:37:39.521Z,20.50
2018-08-06T04:42:42.417Z,20.80
2018-08-06T04:47:44.585Z,21.10
2018-08-06T04:52:46.728Z,21.30
2018-08-06T04:57:48.875Z,21.70
2018-08-06T05:02:51.038Z,22.00
2018-08-06T05:07:53.209Z,22.30
2018-08-06T05:12:55.393Z,22.40
2018-08-06T05:17:57.551Z,22.60
2018-08-06T05:22:59.802Z,22.30
2018-08-06T05:28:02.029Z,22.90
2018-08-06T05:33:04.342Z,23.50
2018-08-06T05:38:06.544Z,23.70
2018-08-06T05:43:08.725Z,24.00
2018-08-06T05:48:10.930Z,24.10
2018-08-06T05:53:13.097Z,24.30
2018-08-06T05:58:15.319Z,24.40
2018-08-06T06:03:17.539Z,24.80
2018-08-06T06:08:19.713Z,25.20
2018-08-06T06:13:21.921Z,25.60
2018-08-06T06:18:24.107Z,25.70
2018-08-06T06:23:26.355Z,25.90
2018-08-06T06:28:28.528Z,26.10
2018-08-06T06:33:30.729Z,26.20
2018-08-06T06:38:32.902Z,26.40
2018-08-06T06:43:35.093Z,26.80
2018-08-06T06:48:37.245Z,27.00
2018-08-06T06:53:39.408Z,27.20
2018-08-06T06:58:41.639Z,27.80
2018-08-06T07:03:43.833Z,28.00
2018-08-06T07:08:45.997Z,28.50
2018-08-06T07:13:48.247Z,28.70
2018-08-06T07:18:50.378Z,29.30
2018-08-06T07:23:52.525Z,29.50
2018-08-06T07:28:54.859Z,29.00
2018-08-06T07:33:57.125Z,29.00
2018-08-06T07:38:59.280Z,29.80
2018-08-06T07:44:01.483Z,30.20
2018-08-06T07:49:03.825Z,30.50
2018-08-06T07:54:06.037Z,30.20
2018-08-06T07:59:08.224Z,30.20
2018-08-06T08:04:10.422Z,30.90
2018-08-06T08:09:12.689Z,30.80
2018-08-06T08:14:14.875Z,31.30
2018-08-06T08:19:17.053Z,31.90
2018-08-06T08:24:19.193Z,31.00
2018-08-06T08:29:21.362Z,31.10
2018-08-06T08:34:23.526Z,30.90
2018-08-06T08:39:25.717Z,31.00
2018-08-06T08:44:27.868Z,31.50
2018-08-06T08:49:30.065Z,31.00
2018-08-06T08:54:32.217Z,31.20
2018-08-06T08:59:34.389Z,31.30
2018-08-06T09:04:36.548Z,31.80
2018-08-06T09:09:38.693Z,31.90
2018-08-06T09:14:40.842Z,31.80
2018-08-06T09:19:43.021Z,31.60
2018-08-06T09:24:45.184Z,32.30
2018-08-06T09:29:47.330Z,32.40
2018-08-06T09:34:49.470Z,32.40
2018-08-06T09:39:51.645Z,32.40
2018-08-06T09:44:53.810Z,33.00
2018-08-06T09:49:55.985Z,31.90
2018-08-06T09:54:58.953Z,32.70
2018-08-06T10:00:01.142Z,33.60
2018-08-06T10:05:03.441Z,33.70
2018-08-06T10:10:07.861Z,34.80
2018-08-06T10:15:10.857Z,34.30
2018-08-06T10:20:16.342Z,33.40
2018-08-06T10:25:18.549Z,33.20
2018-08-06T10:30:21.937Z,33.90
2018-08-06T10:35:24.017Z,34.80
2018-08-06T10:40:26.227Z,34.40
2018-08-06T10:45:28.385Z,33.60
2018-08-06T10:50:30.558Z,32.60
2018-08-06T10:55:32.745Z,33.80
2018-08-06T11:00:34.945Z,33.80
2018-08-06T11:05:37.122Z,34.10
2018-08-06T11:10:39.325Z,33.90
2018-08-06T11:15:41.505Z,34.20
2018-08-06T11:20:43.657Z,33.70
2018-08-06T11:25:45.835Z,34.20
2018-08-06T11:30:48.009Z,34.00
2018-08-06T11:35:50.222Z,33.70
2018-08-06T11:40:52.397Z,33.90
2018-08-06T11:45:54.575Z,34.20
2018-08-06T11:50:56.763Z,34.50
2018-08-06T11:55:58.950Z,34.90
2018-08-06T12:01:01.178Z,33.60
2018-08-06T12:06:03.456Z,34.50
2018-08-06T12:11:05.645Z,35.00
2018-08-06T12:16:07.854Z,35.10
2018-08-06T12:21:10.067Z,34.90
2018-08-06T12:26:12.279Z,35.10
2018-08-06T12:31:14.387Z,35.60
2018-08-06T12:36:16.598Z,35.40
2018-08-06T12:41:18.785Z,35.20
2018-08-06T12:46:21.039Z,35.00
2018-08-06T12:51:23.289Z,35.00
2018-08-06T12:56:25.493Z,35.30
2018-08-06T13:01:27.699Z,35.50
2018-08-06T13:06:29.880Z,35.40
2018-08-06T13:11:32.143Z,35.20
2018-08-06T13:16:34.454Z,34.80
2018-08-06T13:21:36.630Z,34.70
2018-08-06T13:26:38.807Z,34.70
2018-08-06T13:31:40.981Z,35.30
2018-08-06T13:36:43.257Z,34.90
2018-08-06T13:41:45.345Z,34.90
2018-08-06T13:46:47.580Z,35.10
2018-08-06T13:51:49.726Z,35.20
2018-08-06T13:56:51.907Z,34.90
2018-08-06T14:01:54.065Z,34.80
2018-08-06T14:06:56.222Z,34.30
2018-08-06T14:11:58.399Z,34.80
2018-08-06T14:17:00.558Z,34.90
2018-08-06T14:22:02.721Z,33.90
2018-08-06T14:27:04.889Z,34.10
2018-08-06T14:32:07.094Z,34.00
2018-08-06T14:37:09.353Z,33.90
2018-08-06T14:42:11.547Z,33.80
2018-08-06T14:47:13.706Z,34.10
2018-08-06T14:52:15.870Z,33.80
2018-08-06T14:57:18.051Z,34.00
2018-08-06T15:02:20.254Z,34.00
2018-08-06T15:07:22.441Z,33.80
2018-08-06T15:12:24.611Z,33.60
2018-08-06T15:17:28.244Z,33.60
2018-08-06T15:22:30.494Z,34.00
2018-08-06T15:27:32.690Z,34.20
2018-08-06T15:32:34.877Z,34.30
2018-08-06T15:37:37.913Z,34.20
2018-08-06T15:42:40.501Z,34.20
2018-08-06T15:47:43.549Z,34.20
2018-08-06T15:52:45.761Z,34.20
2018-08-06T15:57:47.955Z,34.20
2018-08-06T16:02:50.134Z,34.10
2018-08-06T16:07:52.317Z,34.00
2018-08-06T16:12:54.502Z,34.10
2018-08-06T16:17:56.692Z,34.00
2018-08-06T16:22:58.880Z,34.10
2018-08-06T16:28:01.378Z,34.20
2018-08-06T16:33:03.630Z,34.10
2018-08-06T16:38:05.854Z,34.00
2018-08-06T16:43:08.101Z,34.10
2018-08-06T16:48:10.298Z,34.00
2018-08-06T16:53:12.502Z,34.00
2018-08-06T16:58:14.666Z,33.80
2018-08-06T17:03:16.885Z,33.90
2018-08-06T17:08:19.069Z,33.90
2018-08-06T17:13:21.307Z,33.70
2018-08-06T17:18:23.553Z,33.70
2018-08-06T17:23:25.754Z,33.50
2018-08-06T17:28:27.938Z,33.50
2018-08-06T17:33:30.433Z,33.50
2018-08-06T17:38:32.628Z,33.40
2018-08-06T17:43:34.815Z,33.40
2018-08-06T17:48:37.037Z,33.40
2018-08-06T17:53:39.275Z,33.20
2018-08-06T17:58:41.507Z,33.20
2018-08-06T18:03:43.693Z,33.20
2018-08-06T18:08:45.966Z,33.20
2018-08-06T18:13:48.325Z,33.10
2018-08-06T18:18:50.565Z,32.90
2018-08-06T18:23:52.736Z,32.80
2018-08-06T18:28:54.941Z,32.80
2018-08-06T18:33:57.100Z,32.60
2018-08-06T18:38:59.286Z,32.40
2018-08-06T18:44:01.467Z,32.20
2018-08-06T18:49:03.947Z,32.10
2018-08-06T18:54:06.178Z,31.80
2018-08-06T18:59:08.398Z,31.70
2018-08-06T19:04:10.582Z,31.40
2018-08-06T19:09:15.561Z,31.20
2018-08-06T19:14:23.889Z,31.20
2018-08-06T19:19:27.502Z,31.10
2018-08-06T19:24:35.488Z,30.60
2018-08-06T19:29:37.596Z,30.50
2018-08-06T19:34:39.721Z,30.30
2018-08-06T19:39:41.928Z,30.10
2018-08-06T19:44:44.121Z,30.00
2018-08-06T19:49:51.976Z,29.70
2018-08-06T19:54:58.742Z,29.60
2018-08-06T20:00:00.910Z,29.40
2018-08-06T20:05:03.553Z,29.20
2018-08-06T20:10:08.880Z,29.10
2018-08-06T20:15:13.245Z,28.90
2018-08-06T20:20:15.434Z,28.80
2018-08-06T20:25:18.710Z,28.70
2018-08-06T20:30:21.820Z,28.70
2018-08-06T20:35:24.099Z,28.60
2018-08-06T20:40:26.304Z,28.60
2018-08-06T20:45:28.514Z,28.50
2018-08-06T20:50:30.705Z,28.30
2018-08-06T20:55:32.909Z,28.20
2018-08-06T21:00:35.105Z,28.10
2018-08-06T21:05:37.365Z,27.70
2018-08-06T21:10:39.579Z,27.70
2018-08-06T21:15:41.766Z,27.60
2018-08-06T21:20:44.006Z,27.40
2018-08-06T21:25:46.169Z,27.30
2018-08-06T21:30:48.368Z,27.30
2018-08-06T21:35:50.554Z,27.20
2018-08-06T21:40:52.785Z,27.20
2018-08-06T21:45:54.984Z,27.00
2018-08-06T21:50:57.169Z,27.30
2018-08-06T21:55:59.386Z,27.30
2018-08-06T22:01:01.575Z,27.10
2018-08-06T22:06:03.834Z,26.90
2018-08-06T22:11:06.214Z,26.70
2018-08-06T22:16:08.433Z,26.60
2018-08-06T22:21:10.623Z,26.40
2018-08-06T22:26:12.808Z,26.40
2018-08-06T22:31:14.981Z,26.10
2018-08-06T22:36:17.204Z,26.20
2018-08-06T22:41:19.463Z,26.30
2018-08-06T22:46:22.197Z,26.10
2018-08-06T22:51:24.393Z,26.20
2018-08-06T22:56:26.592Z,26.30
2018-08-06T23:01:28.797Z,26.10
2018-08-06T23:06:30.966Z,25.80
2018-08-06T23:11:33.137Z,25.70
2018-08-06T23:16:35.309Z,25.70
2018-08-06T23:21:37.510Z,25.60
2018-08-06T23:26:39.653Z,25.40
2018-08-06T23:31:41.852Z,25.70
2018-08-06T23:36:44.071Z,25.50
2018-08-06T23:41:46.249Z,25.40
2018-08-06T23:46:48.425Z,25.40
2018-08-06T23:51:50.594Z,25.40
2018-08-06T23:56:52.784Z,25.10
